Terminal Aerodrome Forecast
Issued by NWS Albany, NY

Home | Current Version | Previous Version | Text Only | Print | Product List | Glossary On
Versions: 1 2 3 4 5 6 7 8 9 10 11 12 13 14 15 16 17 18 19 20
000
FTUS41 KALY 020536
TAFALB
TAF
KALB 020536Z 0206/0306 VRB03KT P6SM -DZ OVC014
     FM021400 15006KT 4SM -RA BR OVC010
     FM021700 14005KT 3SM -RA BR OVC007
     FM022100 19005KT P6SM -DZ OVC010=

USA.gov is the U.S. government's official web portal to all federal, state and local government web resources and services.